createdAt,value
2023-05-12T00:01:02.882Z,7.20
2023-05-12T00:03:29.290Z,8.80
2023-05-12T00:05:55.725Z,7.20
2023-05-12T00:08:22.136Z,7.10
2023-05-12T00:10:48.461Z,15.30
2023-05-12T00:13:14.979Z,11.40
2023-05-12T00:15:41.339Z,10.30
2023-05-12T00:18:07.919Z,10.30
2023-05-12T00:20:34.383Z,7.90
2023-05-12T00:23:00.657Z,5.30
2023-05-12T00:25:27.014Z,9.00
2023-05-12T00:27:53.276Z,10.70
2023-05-12T00:30:20.508Z,7.00
2023-05-12T00:32:46.952Z,6.80
2023-05-12T00:35:13.520Z,7.20
2023-05-12T00:37:39.748Z,8.20
2023-05-12T00:40:06.805Z,11.00
2023-05-12T00:42:34.386Z,8.40
2023-05-12T00:45:01.209Z,7.00
2023-05-12T00:47:27.958Z,6.70
2023-05-12T00:49:54.420Z,10.20
2023-05-12T00:52:20.923Z,7.90
2023-05-12T00:54:47.944Z,6.30
2023-05-12T00:57:14.437Z,7.60
2023-05-12T00:59:40.768Z,6.20
2023-05-12T01:02:07.891Z,6.50
2023-05-12T01:04:35.128Z,6.60
2023-05-12T01:07:11.730Z,5.50
2023-05-12T01:09:38.144Z,4.80
2023-05-12T01:12:04.861Z,4.60
2023-05-12T01:14:33.459Z,5.70
2023-05-12T01:17:02.889Z,8.10
2023-05-12T01:19:48.412Z,6.10
2023-05-12T01:22:16.492Z,6.60
2023-05-12T01:24:57.031Z,5.50
2023-05-12T01:27:26.683Z,5.40
2023-05-12T01:29:57.642Z,6.70
2023-05-12T01:32:24.145Z,6.60
2023-05-12T01:34:51.529Z,5.60
2023-05-12T01:37:18.305Z,7.00
2023-05-12T01:39:44.658Z,7.10
2023-05-12T01:42:16.708Z,6.00
2023-05-12T01:44:43.247Z,5.80
2023-05-12T01:47:10.606Z,6.40
2023-05-12T01:49:38.149Z,5.40
2023-05-12T01:52:06.226Z,7.50
2023-05-12T01:54:32.934Z,7.40
2023-05-12T01:56:59.257Z,5.20
2023-05-12T01:59:26.022Z,5.90
2023-05-12T02:01:52.717Z,5.00
2023-05-12T02:04:24.496Z,10.30
2023-05-12T02:06:51.497Z,10.00
2023-05-12T02:09:17.925Z,6.00
2023-05-12T02:11:44.406Z,14.00
2023-05-12T02:14:11.106Z,8.50
2023-05-12T02:16:37.745Z,4.70
2023-05-12T02:19:04.347Z,5.00
2023-05-12T02:21:32.119Z,4.40
2023-05-12T02:23:58.535Z,8.00
2023-05-12T02:26:24.881Z,6.90
2023-05-12T02:28:51.601Z,4.90
2023-05-12T02:31:18.285Z,8.90
2023-05-12T02:33:44.689Z,4.90
2023-05-12T02:36:11.173Z,5.80
2023-05-12T02:38:39.234Z,10.00
2023-05-12T02:41:06.129Z,8.90
2023-05-12T02:43:32.738Z,4.90
2023-05-12T02:45:59.069Z,7.30
2023-05-12T02:48:26.012Z,6.90
2023-05-12T02:50:52.681Z,5.60
2023-05-12T02:53:19.117Z,9.00
2023-05-12T02:55:45.402Z,4.30
2023-05-12T02:58:11.719Z,9.40
2023-05-12T03:00:38.012Z,4.70
2023-05-12T03:03:04.379Z,6.40
2023-05-12T03:05:30.807Z,6.60
2023-05-12T03:07:58.327Z,6.30
2023-05-12T03:10:25.065Z,5.20
2023-05-12T03:12:52.525Z,5.20
2023-05-12T03:15:18.798Z,5.30
2023-05-12T03:17:45.146Z,6.50
2023-05-12T03:20:11.656Z,5.10
2023-05-12T03:22:38.125Z,9.40
2023-05-12T03:25:05.989Z,6.90
2023-05-12T03:27:32.402Z,8.10
2023-05-12T03:30:01.542Z,7.70
2023-05-12T03:32:28.939Z,9.00
2023-05-12T03:34:55.384Z,5.60
2023-05-12T03:37:22.082Z,5.30
2023-05-12T03:39:48.603Z,9.10
2023-05-12T03:42:15.202Z,10.10
2023-05-12T03:44:42.004Z,7.10
2023-05-12T03:47:08.601Z,6.30
2023-05-12T03:49:35.965Z,5.20
2023-05-12T03:52:02.329Z,5.30
2023-05-12T03:54:28.669Z,7.90
2023-05-12T03:56:55.243Z,7.20
2023-05-12T03:59:21.823Z,8.30
2023-05-12T04:01:48.309Z,8.10
2023-05-12T04:04:14.686Z,12.00
2023-05-12T04:06:41.050Z,4.70
2023-05-12T04:09:07.293Z,6.40
2023-05-12T04:11:36.199Z,5.60
2023-05-12T04:14:03.437Z,6.20
2023-05-12T04:16:29.785Z,8.70
2023-05-12T04:18:58.222Z,5.90
2023-05-12T04:21:24.637Z,5.30
2023-05-12T04:23:54.513Z,15.30
2023-05-12T04:26:23.548Z,5.70
2023-05-12T04:28:49.909Z,5.80
2023-05-12T04:31:16.635Z,6.10
2023-05-12T04:33:43.128Z,7.20
2023-05-12T04:36:09.923Z,8.60
2023-05-12T04:38:36.756Z,8.70
2023-05-12T04:41:03.413Z,8.00
2023-05-12T04:46:00.778Z,7.30
2023-05-12T04:48:28.470Z,9.20
2023-05-12T04:50:59.182Z,15.00
2023-05-12T04:53:26.523Z,8.60
2023-05-12T04:55:52.902Z,13.10
2023-05-12T04:58:19.264Z,11.80
2023-05-12T05:00:46.239Z,11.10
2023-05-12T05:03:12.660Z,9.10
2023-05-12T05:05:38.981Z,11.00
2023-05-12T05:08:05.400Z,6.70
2023-05-12T05:10:34.604Z,12.30
2023-05-12T05:13:00.864Z,11.30
2023-05-12T05:15:27.222Z,10.20
2023-05-12T05:17:53.801Z,6.20
2023-05-12T05:20:27.612Z,9.20
2023-05-12T05:22:55.277Z,7.50
2023-05-12T05:25:21.755Z,4.30
2023-05-12T05:27:48.777Z,6.40
2023-05-12T05:30:17.479Z,8.00
2023-05-12T05:32:46.256Z,5.00
2023-05-12T05:35:12.762Z,9.50
2023-05-12T05:37:46.696Z,5.30
2023-05-12T05:40:13.811Z,7.40
2023-05-12T05:42:40.213Z,7.70
2023-05-12T05:45:07.265Z,5.10
2023-05-12T05:47:34.089Z,7.50
2023-05-12T05:50:00.526Z,9.60
2023-05-12T05:52:27.021Z,7.70
2023-05-12T05:54:53.357Z,6.40
2023-05-12T05:57:21.062Z,7.10
2023-05-12T05:59:47.434Z,6.00
2023-05-12T06:02:15.810Z,10.10
2023-05-12T06:04:42.202Z,7.90
2023-05-12T06:07:08.529Z,6.60
2023-05-12T06:09:34.839Z,7.30
2023-05-12T06:12:01.101Z,6.80
2023-05-12T06:14:27.408Z,15.90
2023-05-12T06:16:54.849Z,8.90
2023-05-12T06:19:23.397Z,4.10
2023-05-12T06:21:51.921Z,8.70
2023-05-12T06:24:18.303Z,5.30
2023-05-12T06:26:44.780Z,5.60
2023-05-12T06:29:11.028Z,4.60
2023-05-12T06:31:37.439Z,8.80
2023-05-12T06:34:03.821Z,8.50
2023-05-12T06:36:30.181Z,6.50
2023-05-12T06:38:56.645Z,6.00
2023-05-12T06:41:24.328Z,4.50
2023-05-12T06:43:51.507Z,5.20
2023-05-12T06:46:20.273Z,10.10
2023-05-12T06:48:46.764Z,3.40
2023-05-12T06:51:13.294Z,7.00
2023-05-12T06:53:40.692Z,4.20
2023-05-12T06:56:07.975Z,4.00
2023-05-12T06:58:34.318Z,8.60
2023-05-12T07:01:00.584Z,7.10
2023-05-12T07:03:26.896Z,6.20
2023-05-12T07:05:53.336Z,4.40
2023-05-12T07:08:19.734Z,7.50
2023-05-12T07:10:46.206Z,7.40
2023-05-12T07:13:12.628Z,6.40
2023-05-12T07:15:38.961Z,5.30
2023-05-12T07:18:05.592Z,8.60
2023-05-12T07:20:32.033Z,3.50
2023-05-12T07:22:58.384Z,7.80
2023-05-12T07:25:24.795Z,5.60
2023-05-12T07:27:51.232Z,8.90
2023-05-12T07:30:17.626Z,8.00
2023-05-12T07:32:44.001Z,6.20
2023-05-12T07:35:10.324Z,3.20
2023-05-12T07:37:36.736Z,3.90
2023-05-12T07:40:04.012Z,2.10
2023-05-12T07:42:30.331Z,9.00
2023-05-12T07:44:56.630Z,4.20
2023-05-12T07:47:22.876Z,3.90
2023-05-12T07:49:49.120Z,7.20
2023-05-12T07:52:15.417Z,5.80
2023-05-12T07:54:43.279Z,6.60
2023-05-12T07:57:12.084Z,5.40
2023-05-12T07:59:38.387Z,4.40
2023-05-12T08:02:04.942Z,6.90
2023-05-12T08:04:31.311Z,6.90
2023-05-12T08:06:57.634Z,6.10
2023-05-12T08:09:23.947Z,4.10
2023-05-12T08:11:51.543Z,10.50
2023-05-12T08:14:18.217Z,5.60
2023-05-12T08:16:45.746Z,6.70
2023-05-12T08:19:13.226Z,4.70
2023-05-12T08:21:39.867Z,4.70
2023-05-12T08:24:06.260Z,5.50
2023-05-12T08:26:32.546Z,10.30
2023-05-12T08:29:00.018Z,12.00
2023-05-12T08:31:26.731Z,6.50
2023-05-12T08:34:09.106Z,3.90
2023-05-12T08:36:37.189Z,8.60
2023-05-12T08:39:03.643Z,3.00
2023-05-12T08:41:42.944Z,4.00
2023-05-12T08:44:10.821Z,6.30
2023-05-12T08:46:37.956Z,5.30
2023-05-12T08:49:05.784Z,5.70
2023-05-12T08:51:32.558Z,6.10
2023-05-12T08:53:58.863Z,13.30
2023-05-12T08:58:55.736Z,7.50
2023-05-12T09:01:23.979Z,3.70
2023-05-12T09:03:51.729Z,7.10
2023-05-12T09:06:18.208Z,8.60
2023-05-12T09:08:44.837Z,6.10
2023-05-12T09:11:14.088Z,6.60
2023-05-12T09:13:59.494Z,4.90
2023-05-12T09:16:38.854Z,3.40
2023-05-12T09:19:06.994Z,4.20
2023-05-12T09:21:33.952Z,9.80
2023-05-12T09:24:06.566Z,7.00
2023-05-12T09:26:50.710Z,7.40
2023-05-12T09:29:30.654Z,8.80
2023-05-12T09:32:03.064Z,6.70
2023-05-12T09:34:34.834Z,3.40
2023-05-12T09:37:04.381Z,6.90
2023-05-12T09:39:30.902Z,5.20
2023-05-12T09:41:57.332Z,4.50
2023-05-12T09:44:24.454Z,5.30
2023-05-12T09:46:51.044Z,6.20
2023-05-12T09:49:19.657Z,6.10
2023-05-12T09:51:46.608Z,7.80
2023-05-12T09:54:13.336Z,5.60
2023-05-12T09:56:40.483Z,4.10
2023-05-12T09:59:10.400Z,3.80
2023-05-12T10:01:37.335Z,5.70
2023-05-12T10:04:06.977Z,3.40
2023-05-12T10:06:40.313Z,10.20
2023-05-12T10:09:18.602Z,2.20
2023-05-12T10:11:46.478Z,2.70
2023-05-12T10:14:13.199Z,5.90
2023-05-12T10:16:40.791Z,5.40
2023-05-12T10:19:07.921Z,7.60
2023-05-12T10:21:36.043Z,3.40
2023-05-12T10:24:03.105Z,8.10
2023-05-12T10:26:31.730Z,3.60
2023-05-12T10:28:58.683Z,7.60
2023-05-12T10:31:27.148Z,7.00
2023-05-12T10:34:01.212Z,6.80
2023-05-12T10:36:28.098Z,6.50
2023-05-12T10:38:55.840Z,10.20
2023-05-12T10:41:30.193Z,4.30
2023-05-12T10:43:56.645Z,4.80
2023-05-12T10:46:25.625Z,3.60
2023-05-12T10:48:54.863Z,5.50
2023-05-12T10:51:25.746Z,5.90
2023-05-12T10:54:00.374Z,4.40
2023-05-12T10:56:30.552Z,7.30
2023-05-12T10:59:24.130Z,9.80
2023-05-12T11:02:00.309Z,4.50
2023-05-12T11:04:50.868Z,8.00
2023-05-12T11:07:22.584Z,4.30
2023-05-12T11:12:18.804Z,10.90
2023-05-12T11:14:46.223Z,2.10
2023-05-12T11:17:13.507Z,7.40
2023-05-12T11:19:45.762Z,8.40
2023-05-12T11:24:41.617Z,2.20
2023-05-12T11:27:12.971Z,10.20
2023-05-12T11:29:41.655Z,5.20
2023-05-12T11:32:12.501Z,8.40
2023-05-12T11:34:38.882Z,4.70
2023-05-12T11:37:06.046Z,5.90
2023-05-12T11:39:32.518Z,2.20
2023-05-12T11:42:12.023Z,5.10
2023-05-12T11:44:49.700Z,7.10
2023-05-12T11:47:18.351Z,13.70
2023-05-12T11:49:52.580Z,6.50
2023-05-12T11:52:20.850Z,4.70
2023-05-12T11:54:51.609Z,2.90
2023-05-12T11:57:32.178Z,6.80
2023-05-12T12:00:04.004Z,3.60
2023-05-12T12:02:32.828Z,4.80
2023-05-12T12:04:59.823Z,7.40
2023-05-12T12:07:30.711Z,4.60
2023-05-12T12:09:57.434Z,5.00
2023-05-12T12:12:23.888Z,9.70
2023-05-12T12:14:50.165Z,5.50
2023-05-12T12:17:16.396Z,6.20
2023-05-12T12:19:42.670Z,9.80
2023-05-12T12:22:08.974Z,4.40
2023-05-12T12:24:35.400Z,4.50
2023-05-12T12:27:01.668Z,3.50
2023-05-12T12:29:28.130Z,4.40
2023-05-12T12:31:55.131Z,3.80
2023-05-12T12:34:21.950Z,5.30
2023-05-12T12:36:48.327Z,5.00
2023-05-12T12:39:14.688Z,3.00
2023-05-12T12:41:41.605Z,2.60
2023-05-12T12:44:08.906Z,6.30
2023-05-12T12:46:35.663Z,4.50
2023-05-12T12:49:02.004Z,5.30
2023-05-12T12:51:42.132Z,5.30
2023-05-12T12:54:11.676Z,2.80
2023-05-12T12:56:38.642Z,4.50
2023-05-12T12:59:05.634Z,3.50
2023-05-12T13:01:33.361Z,10.20
2023-05-12T13:03:59.807Z,8.30
2023-05-12T13:06:26.894Z,8.50
2023-05-12T13:08:55.747Z,8.10
2023-05-12T13:11:22.175Z,4.30
2023-05-12T13:13:48.509Z,2.60
2023-05-12T13:16:15.101Z,5.40
2023-05-12T13:18:41.654Z,2.80
2023-05-12T13:21:08.148Z,5.10
2023-05-12T13:23:34.658Z,4.50
2023-05-12T13:26:00.986Z,6.00
2023-05-12T13:28:28.226Z,3.70
2023-05-12T13:30:54.648Z,2.20
2023-05-12T13:33:21.092Z,8.80
2023-05-12T13:35:47.423Z,16.00
2023-05-12T13:38:13.845Z,2.80
2023-05-12T13:40:40.803Z,10.90
2023-05-12T13:43:07.748Z,3.90
2023-05-12T13:45:34.039Z,4.10
2023-05-12T13:48:00.525Z,5.20
2023-05-12T13:50:27.250Z,9.20
2023-05-12T13:52:53.553Z,7.10
2023-05-12T13:55:21.554Z,4.10
2023-05-12T13:57:48.632Z,3.30
2023-05-12T14:00:16.476Z,2.70
2023-05-12T14:02:45.346Z,6.20
2023-05-12T14:05:11.825Z,5.80
2023-05-12T14:07:38.177Z,7.40
2023-05-12T14:10:04.971Z,3.10
2023-05-12T14:12:31.519Z,4.10
2023-05-12T14:15:07.350Z,2.20
2023-05-12T14:17:45.651Z,1.80
2023-05-12T14:20:12.152Z,3.00
2023-05-12T14:22:38.732Z,6.10
2023-05-12T14:25:05.583Z,3.20
2023-05-12T14:27:31.952Z,4.10
2023-05-12T14:29:58.295Z,2.10
2023-05-12T14:32:24.741Z,7.90
2023-05-12T14:34:51.126Z,11.70
2023-05-12T14:37:17.399Z,3.60
2023-05-12T14:39:43.812Z,2.20
2023-05-12T14:42:10.169Z,7.80
2023-05-12T14:44:36.813Z,2.10
2023-05-12T14:47:03.076Z,6.00
2023-05-12T14:49:29.411Z,6.30
2023-05-12T14:51:55.676Z,4.40
2023-05-12T14:54:25.281Z,7.00
2023-05-12T14:56:52.648Z,2.80
2023-05-12T14:59:19.143Z,7.00
2023-05-12T15:01:45.816Z,3.80
2023-05-12T15:04:12.547Z,6.50
2023-05-12T15:06:39.210Z,3.90
2023-05-12T15:09:07.903Z,3.30
2023-05-12T15:11:36.115Z,3.00
2023-05-12T15:14:03.577Z,5.70
2023-05-12T15:16:30.226Z,4.20
2023-05-12T15:18:56.617Z,5.10
2023-05-12T15:21:22.990Z,4.70
2023-05-12T15:23:49.319Z,3.60
2023-05-12T15:26:32.023Z,7.60
2023-05-12T15:28:59.810Z,4.10
2023-05-12T15:31:28.570Z,2.90
2023-05-12T15:33:56.143Z,6.20
2023-05-12T15:36:22.730Z,8.50
2023-05-12T15:38:49.090Z,3.10
2023-05-12T15:41:15.414Z,2.60
2023-05-12T15:43:41.748Z,6.30
2023-05-12T15:46:09.903Z,5.90
2023-05-12T15:48:36.250Z,4.70
2023-05-12T15:51:03.438Z,5.20
2023-05-12T15:53:30.302Z,6.10
2023-05-12T15:56:04.005Z,2.80
2023-05-12T16:04:44.597Z,2.20
2023-05-12T16:07:12.552Z,3.40
2023-05-12T16:09:38.899Z,3.40
2023-05-12T16:12:07.429Z,3.10
2023-05-12T16:14:35.547Z,7.70
2023-05-12T16:17:02.698Z,6.80
2023-05-12T16:19:29.084Z,2.60
2023-05-12T16:21:57.700Z,2.00
2023-05-12T16:24:27.529Z,3.10
2023-05-12T16:26:58.149Z,2.20
2023-05-12T16:29:24.603Z,3.20
2023-05-12T16:31:51.350Z,4.00
2023-05-12T16:34:19.087Z,4.80
2023-05-12T16:36:45.526Z,2.50
2023-05-12T16:39:12.238Z,3.00
2023-05-12T16:41:38.728Z,2.60
2023-05-12T16:44:08.014Z,5.20
2023-05-12T16:46:35.071Z,3.30
2023-05-12T16:49:02.210Z,3.40
2023-05-12T16:51:32.305Z,6.00
2023-05-12T16:53:58.651Z,7.00
2023-05-12T16:56:26.733Z,6.70
2023-05-12T16:58:53.026Z,3.60
2023-05-12T17:01:19.460Z,3.60
2023-05-12T17:03:45.956Z,5.40
2023-05-12T17:06:12.491Z,5.20
2023-05-12T17:08:38.873Z,2.30
2023-05-12T17:11:05.439Z,5.50
2023-05-12T17:13:37.592Z,8.50
2023-05-12T17:16:04.101Z,3.70
2023-05-12T17:18:30.678Z,5.20
2023-05-12T17:20:57.811Z,2.80
2023-05-12T17:23:26.005Z,2.50
2023-05-12T17:25:52.831Z,10.20
2023-05-12T17:28:20.337Z,14.30
2023-05-12T17:30:47.312Z,3.70
2023-05-12T17:33:14.820Z,5.30
2023-05-12T17:35:41.166Z,2.60
2023-05-12T17:38:07.694Z,3.90
2023-05-12T17:40:34.000Z,4.20
2023-05-12T17:43:00.361Z,5.50
2023-05-12T17:45:27.695Z,5.30
2023-05-12T17:47:56.435Z,8.70
2023-05-12T17:50:23.014Z,8.10
2023-05-12T17:52:49.448Z,5.40
2023-05-12T17:55:16.696Z,4.80
2023-05-12T17:57:43.116Z,5.40
2023-05-12T18:00:10.080Z,6.10
2023-05-12T18:02:44.117Z,4.50
2023-05-12T18:05:10.504Z,4.20
2023-05-12T18:07:36.860Z,3.70
2023-05-12T18:10:07.504Z,3.00
2023-05-12T18:12:33.994Z,3.40
2023-05-12T18:15:00.352Z,8.00
2023-05-12T18:17:26.995Z,6.50
2023-05-12T18:19:53.608Z,4.90
2023-05-12T18:22:19.917Z,5.60
2023-05-12T18:24:47.161Z,5.30
2023-05-12T18:27:13.548Z,6.90
2023-05-12T18:29:39.906Z,7.30
2023-05-12T18:32:06.240Z,6.00
2023-05-12T18:34:32.608Z,5.70
2023-05-12T18:37:02.234Z,6.10
2023-05-12T18:39:28.528Z,10.00
2023-05-12T18:41:54.907Z,7.50
2023-05-12T18:44:21.502Z,7.20
2023-05-12T18:46:47.870Z,7.10
2023-05-12T18:49:14.282Z,13.70
2023-05-12T18:51:40.598Z,7.60
2023-05-12T18:54:06.870Z,6.00
2023-05-12T18:56:33.639Z,6.50
2023-05-12T18:59:00.455Z,5.30
2023-05-12T19:01:27.217Z,6.40
2023-05-12T19:03:53.693Z,5.60
2023-05-12T19:06:20.807Z,8.50
2023-05-12T19:08:47.130Z,8.30
2023-05-12T19:11:13.407Z,9.40
2023-05-12T19:13:42.712Z,5.90
2023-05-12T19:16:09.105Z,8.90
2023-05-12T19:18:35.482Z,11.40
2023-05-12T19:21:02.064Z,9.50
2023-05-12T19:23:29.912Z,8.60
2023-05-12T19:25:56.194Z,7.40
2023-05-12T19:28:22.603Z,10.30
2023-05-12T19:30:48.930Z,8.30
2023-05-12T19:33:17.223Z,18.60
2023-05-12T19:35:43.807Z,11.30
2023-05-12T19:38:10.028Z,10.20
2023-05-12T19:40:36.315Z,7.70
2023-05-12T19:43:04.370Z,14.30
2023-05-12T19:45:30.690Z,9.90
2023-05-12T19:47:57.025Z,6.50
2023-05-12T19:50:23.326Z,13.00
2023-05-12T19:52:49.966Z,12.40
2023-05-12T19:55:16.356Z,10.10
2023-05-12T19:57:43.277Z,11.30
2023-05-12T20:00:10.221Z,9.80
2023-05-12T20:02:40.016Z,10.50
2023-05-12T20:05:06.935Z,11.90
2023-05-12T20:07:33.182Z,10.00
2023-05-12T20:10:00.551Z,11.70
2023-05-12T20:12:26.974Z,11.00
2023-05-12T20:14:53.201Z,10.30
2023-05-12T20:17:19.604Z,13.20
2023-05-12T20:19:45.883Z,11.30
2023-05-12T20:22:12.263Z,12.00
2023-05-12T20:24:38.550Z,9.40
2023-05-12T20:27:04.946Z,8.90
2023-05-12T20:29:31.805Z,7.20
2023-05-12T20:31:58.105Z,14.40
2023-05-12T20:34:24.382Z,10.40
2023-05-12T20:36:50.666Z,10.20
2023-05-12T20:39:17.575Z,10.50
2023-05-12T20:41:43.873Z,12.00
2023-05-12T20:44:10.230Z,12.90
2023-05-12T20:46:38.455Z,12.40
2023-05-12T20:49:05.259Z,13.00
2023-05-12T20:51:31.783Z,10.90
2023-05-12T20:53:58.096Z,8.70
2023-05-12T20:56:25.773Z,10.90
2023-05-12T20:58:52.302Z,11.40
2023-05-12T21:01:18.734Z,13.10
2023-05-12T21:03:45.356Z,9.10
2023-05-12T21:06:11.671Z,8.70
2023-05-12T21:08:38.109Z,11.80
2023-05-12T21:11:12.993Z,12.90
2023-05-12T21:13:39.330Z,10.60
2023-05-12T21:16:05.730Z,16.40
2023-05-12T21:18:32.442Z,11.80
2023-05-12T21:20:58.732Z,15.60
2023-05-12T21:23:25.381Z,10.00
2023-05-12T21:25:52.630Z,10.20
2023-05-12T21:28:18.985Z,13.40
2023-05-12T21:30:45.347Z,12.20
2023-05-12T21:33:11.690Z,14.60
2023-05-12T21:35:38.126Z,12.30
2023-05-12T21:38:06.557Z,16.40
2023-05-12T21:40:32.875Z,11.10
2023-05-12T21:42:59.355Z,18.30
2023-05-12T21:45:25.771Z,27.40
2023-05-12T21:47:52.597Z,13.60
2023-05-12T21:50:20.996Z,19.40
2023-05-12T21:52:50.119Z,18.00
2023-05-12T21:55:23.320Z,13.10
2023-05-12T21:57:49.646Z,24.00
2023-05-12T22:00:19.302Z,21.40
2023-05-12T22:02:46.935Z,26.50
2023-05-12T22:05:14.088Z,25.20
2023-05-12T22:07:40.587Z,30.20
2023-05-12T22:10:07.085Z,27.70
2023-05-12T22:12:33.541Z,29.90
2023-05-12T22:14:59.892Z,28.60
2023-05-12T22:17:26.241Z,32.80
2023-05-12T22:19:52.671Z,44.80
2023-05-12T22:22:19.043Z,50.70
2023-05-12T22:24:45.435Z,43.30
2023-05-12T22:27:11.906Z,46.60
2023-05-12T22:29:38.239Z,46.80
2023-05-12T22:32:04.795Z,48.50
2023-05-12T22:34:31.158Z,53.20
2023-05-12T22:36:57.466Z,55.20
2023-05-12T22:39:23.825Z,51.80
2023-05-12T22:41:50.363Z,48.30
2023-05-12T22:44:16.595Z,49.20
2023-05-12T22:46:42.960Z,51.80
2023-05-12T22:49:09.231Z,49.50
2023-05-12T22:51:35.554Z,54.70
2023-05-12T22:54:01.914Z,50.20
2023-05-12T22:56:28.295Z,57.80
2023-05-12T22:58:54.637Z,49.50
2023-05-12T23:01:20.957Z,55.70
2023-05-12T23:03:47.316Z,51.20
2023-05-12T23:06:13.645Z,48.00
2023-05-12T23:08:39.915Z,45.50
2023-05-12T23:11:06.327Z,48.10
2023-05-12T23:13:32.607Z,43.60
2023-05-12T23:15:58.904Z,40.50
2023-05-12T23:18:25.241Z,43.10
2023-05-12T23:20:51.561Z,36.30
2023-05-12T23:23:17.902Z,36.30
2023-05-12T23:25:46.247Z,39.90
2023-05-12T23:28:12.513Z,37.40
2023-05-12T23:30:38.834Z,39.70
2023-05-12T23:33:05.297Z,32.80
2023-05-12T23:35:31.700Z,38.50
2023-05-12T23:37:58.213Z,34.00
2023-05-12T23:40:24.622Z,34.80
2023-05-12T23:42:50.912Z,35.10
2023-05-12T23:45:17.643Z,42.70
2023-05-12T23:47:43.990Z,30.30
2023-05-12T23:50:10.768Z,31.80
2023-05-12T23:52:37.100Z,30.50
2023-05-12T23:55:03.632Z,28.90
2023-05-12T23:57:29.911Z,30.00
2023-05-12T23:59:56.152Z,32.30
